<?xml version="1.0"?>
<gpx xmlns="http://www.topografix.com/GPX/1/1" xmlns:xsi="http://www.w3.org/2001/XMLSchema-instance" xsi:schemaLocation="http://www.topografix.com/GPX/1/1 http://www.topografix.com/GPX/1/1/gpx.xsd" version="1.1" creator="OpenLayers"><wpt lat="47.43633" lon="3.46711"><name/><desc>A remplir</desc><sym>https://www.rando58.fr/hnvy/images/logo/yellow07.png</sym></wpt><wpt lat="47.439629999999994" lon="3.48358"><name/><desc>A remplir</desc><sym>https://www.rando58.fr/hnvy/images/logo/yellow04.png</sym></wpt><wpt lat="47.43566999999999" lon="3.48525"><name/><desc>A remplir</desc><sym>https://www.rando58.fr/hnvy/images/logo/yellow06.png</sym></wpt><wpt lat="47.444140000000004" lon="3.4877000000000002"><name/><desc>A remplir</desc><sym>https://www.rando58.fr/hnvy/images/logo/yellow03.png</sym></wpt><trk><name>BREUGNON-18592809</name><trkseg><trkpt lat="47.42815999999999" lon="3.45249"><ele>199</ele><time>2024-03-24T18:36:40Z</time></trkpt><trkpt lat="47.42756" lon="3.4532700000000003"><ele>203</ele><time>2024-03-24T18:36:59Z</time></trkpt><trkpt lat="47.427670000000006" lon="3.45586"><ele>227</ele><time>2024-03-24T18:37:40Z</time></trkpt><trkpt lat="47.4307" lon="3.45479"><ele>222</ele><time>2024-03-24T18:38:52Z</time></trkpt><trkpt lat="47.43481" lon="3.4576"><ele>230</ele><time>2024-03-24T18:40:38Z</time></trkpt><trkpt lat="47.43864999999997" lon="3.4560199999999996"><ele>224</ele><time>2024-03-24T18:42:11Z</time></trkpt><trkpt lat="47.44018" lon="3.4559200000000003"><ele>221</ele><time>2024-03-24T18:42:47Z</time></trkpt><trkpt lat="47.44153" lon="3.4646999999999997"><ele>197</ele><time>2024-03-24T18:45:09Z</time></trkpt><trkpt lat="47.444469999999995" lon="3.4727900000000003"><ele>195</ele><time>2024-03-24T18:47:34Z</time></trkpt><trkpt lat="47.44480999999999" lon="3.47909"><ele>193</ele><time>2024-03-24T18:49:14Z</time></trkpt><trkpt lat="47.44454000000002" lon="3.4837300000000004"><ele>187</ele><time>2024-03-24T18:50:28Z</time></trkpt><trkpt lat="47.44407000000001" lon="3.48564"><ele>185</ele><time>2024-03-24T18:51:00Z</time></trkpt><trkpt lat="47.444140000000004" lon="3.4877000000000002"><ele>176</ele><time>2024-03-24T18:51:32Z</time></trkpt><trkpt lat="47.44281999999998" lon="3.4886"><ele>184</ele><time>2024-03-24T18:52:06Z</time></trkpt><trkpt lat="47.44122999999999" lon="3.48578"><ele>198</ele><time>2024-03-24T18:53:04Z</time></trkpt><trkpt lat="47.44060999999999" lon="3.48497"><ele>199</ele><time>2024-03-24T18:53:24Z</time></trkpt><trkpt lat="47.439629999999994" lon="3.48389"><ele>200</ele><time>2024-03-24T18:53:52Z</time></trkpt><trkpt lat="47.439629999999994" lon="3.48358"><ele>199</ele><time>2024-03-24T18:53:57Z</time></trkpt><trkpt lat="47.43566999999999" lon="3.48525"><ele>189</ele><time>2024-03-24T18:55:33Z</time></trkpt><trkpt lat="47.43260999999998" lon="3.4800899999999997"><ele>183</ele><time>2024-03-24T18:57:22Z</time></trkpt><trkpt lat="47.43164999999999" lon="3.4769499999999995"><ele>182</ele><time>2024-03-24T18:58:16Z</time></trkpt><trkpt lat="47.43232000000003" lon="3.47306"><ele>192</ele><time>2024-03-24T18:59:19Z</time></trkpt><trkpt lat="47.43341000000001" lon="3.4714900000000006"><ele>193</ele><time>2024-03-24T18:59:55Z</time></trkpt><trkpt lat="47.43339" lon="3.4695"><ele>197</ele><time>2024-03-24T19:00:26Z</time></trkpt><trkpt lat="47.43633" lon="3.46711"><ele>207</ele><time>2024-03-24T19:01:45Z</time></trkpt><trkpt lat="47.43342999999996" lon="3.4607500000000004"><ele>213</ele><time>2024-03-24T19:03:46Z</time></trkpt><trkpt lat="47.43043000000003" lon="3.45863"><ele>214</ele><time>2024-03-24T19:05:04Z</time></trkpt><trkpt lat="47.427760000000006" lon="3.4559300000000004"><ele>227</ele><time>2024-03-24T19:06:19Z</time></trkpt></trkseg></trk><wpt lat="47.42815999999999" lon="3.45249"><name>Mairie</name><desc>A remplir</desc><sym>https://www.rando58.fr/hnvy/images/logo/depart.png</sym></wpt><wpt lat="47.4307" lon="3.45479"><name>Point de vue</name><desc>A remplir</desc><sym>https://www.rando58.fr/hnvy/images/logo/vue.png</sym></wpt><wpt lat="47.439078983725324" lon="3.455625537389118"><name>T6able d'orientation</name><desc>A remplir</desc><sym>https://www.rando58.fr/hnvy/images/logo/vue.png</sym></wpt><wpt lat="47.44018" lon="3.4559200000000003"><name/><desc>A remplir</desc><sym>https://www.rando58.fr/hnvy/images/logo/yellow02.png</sym></wpt><wpt lat="47.434722761213834" lon="3.457923328810751"><name/><desc>A remplir</desc><sym>https://www.rando58.fr/hnvy/images/logo/yellow01.png</sym></wpt></gpx>
